sensor_id;sensor_type;location;lat;lon;timestamp;temperature;humidity
326;DHT22;150;52.352;14.058;2023-02-17T00:00:35;9.40;40.60
326;DHT22;150;52.352;14.058;2023-02-17T00:03:03;9.40;40.60
326;DHT22;150;52.352;14.058;2023-02-17T00:05:30;9.40;40.80
326;DHT22;150;52.352;14.058;2023-02-17T00:07:58;9.40;40.60
326;DHT22;150;52.352;14.058;2023-02-17T00:10:24;9.40;40.70
326;DHT22;150;52.352;14.058;2023-02-17T00:12:51;9.40;40.20
326;DHT22;150;52.352;14.058;2023-02-17T00:15:18;9.40;40.30
326;DHT22;150;52.352;14.058;2023-02-17T00:17:44;9.30;40.50
326;DHT22;150;52.352;14.058;2023-02-17T00:20:11;9.30;41.00
326;DHT22;150;52.352;14.058;2023-02-17T00:22:38;9.30;41.30
326;DHT22;150;52.352;14.058;2023-02-17T00:25:06;9.30;41.40
326;DHT22;150;52.352;14.058;2023-02-17T00:27:33;9.30;41.00
326;DHT22;150;52.352;14.058;2023-02-17T00:29:59;9.40;40.90
326;DHT22;150;52.352;14.058;2023-02-17T00:32:26;9.40;40.60
326;DHT22;150;52.352;14.058;2023-02-17T00:34:56;9.40;40.80
326;DHT22;150;52.352;14.058;2023-02-17T00:37:23;9.40;40.80
326;DHT22;150;52.352;14.058;2023-02-17T00:39:50;9.40;40.60
326;DHT22;150;52.352;14.058;2023-02-17T00:42:18;9.30;41.00
326;DHT22;150;52.352;14.058;2023-02-17T00:44:44;9.40;40.80
326;DHT22;150;52.352;14.058;2023-02-17T00:47:11;9.40;40.80
326;DHT22;150;52.352;14.058;2023-02-17T00:49:37;9.50;40.50
326;DHT22;150;52.352;14.058;2023-02-17T00:52:04;9.50;40.40
326;DHT22;150;52.352;14.058;2023-02-17T00:54:31;9.50;40.50
326;DHT22;150;52.352;14.058;2023-02-17T00:56:57;9.50;40.40
326;DHT22;150;52.352;14.058;2023-02-17T00:59:25;9.40;40.50
326;DHT22;150;52.352;14.058;2023-02-17T01:01:52;9.50;40.60
326;DHT22;150;52.352;14.058;2023-02-17T01:04:18;9.50;40.60
326;DHT22;150;52.352;14.058;2023-02-17T01:06:45;9.50;41.00
326;DHT22;150;52.352;14.058;2023-02-17T01:09:13;9.40;41.10
326;DHT22;150;52.352;14.058;2023-02-17T01:11:41;9.40;41.70
326;DHT22;150;52.352;14.058;2023-02-17T01:14:11;9.40;42.00
326;DHT22;150;52.352;14.058;2023-02-17T01:16:40;9.50;42.50
326;DHT22;150;52.352;14.058;2023-02-17T01:19:17;9.40;43.00
326;DHT22;150;52.352;14.058;2023-02-17T01:21:44;9.40;43.50
326;DHT22;150;52.352;14.058;2023-02-17T01:24:11;9.40;43.50
326;DHT22;150;52.352;14.058;2023-02-17T01:26:39;9.40;43.50
326;DHT22;150;52.352;14.058;2023-02-17T01:29:07;9.40;44.00
326;DHT22;150;52.352;14.058;2023-02-17T01:31:34;9.30;44.40
326;DHT22;150;52.352;14.058;2023-02-17T01:34:03;9.30;44.80
326;DHT22;150;52.352;14.058;2023-02-17T01:36:30;9.30;45.30
326;DHT22;150;52.352;14.058;2023-02-17T01:38:56;9.20;45.70
326;DHT22;150;52.352;14.058;2023-02-17T01:41:25;9.30;46.00
326;DHT22;150;52.352;14.058;2023-02-17T01:44:08;9.30;45.70
326;DHT22;150;52.352;14.058;2023-02-17T01:46:35;9.30;45.50
326;DHT22;150;52.352;14.058;2023-02-17T01:49:08;9.20;45.80
326;DHT22;150;52.352;14.058;2023-02-17T01:51:37;9.20;46.10
326;DHT22;150;52.352;14.058;2023-02-17T01:54:07;9.20;46.20
326;DHT22;150;52.352;14.058;2023-02-17T01:56:38;9.10;46.40
326;DHT22;150;52.352;14.058;2023-02-17T01:59:11;9.10;46.60
326;DHT22;150;52.352;14.058;2023-02-17T02:01:38;9.20;46.60
326;DHT22;150;52.352;14.058;2023-02-17T02:04:07;9.30;46.90
326;DHT22;150;52.352;14.058;2023-02-17T02:06:39;9.30;46.20
326;DHT22;150;52.352;14.058;2023-02-17T02:09:11;9.30;46.70
326;DHT22;150;52.352;14.058;2023-02-17T02:11:39;9.30;46.60
326;DHT22;150;52.352;14.058;2023-02-17T02:14:07;9.10;47.20
326;DHT22;150;52.352;14.058;2023-02-17T02:16:38;9.30;47.40
326;DHT22;150;52.352;14.058;2023-02-17T02:19:40;9.20;47.70
326;DHT22;150;52.352;14.058;2023-02-17T02:22:32;9.20;48.10
326;DHT22;150;52.352;14.058;2023-02-17T02:25:11;9.10;48.20
326;DHT22;150;52.352;14.058;2023-02-17T02:27:49;9.20;48.30
326;DHT22;150;52.352;14.058;2023-02-17T02:30:49;9.10;48.40
326;DHT22;150;52.352;14.058;2023-02-17T02:33:27;9.10;49.00
326;DHT22;150;52.352;14.058;2023-02-17T02:36:01;9.10;48.80
326;DHT22;150;52.352;14.058;2023-02-17T02:38:34;9.10;49.00
326;DHT22;150;52.352;14.058;2023-02-17T02:41:08;9.10;48.90
326;DHT22;150;52.352;14.058;2023-02-17T02:43:36;9.00;49.30
326;DHT22;150;52.352;14.058;2023-02-17T02:46:03;9.00;49.40
326;DHT22;150;52.352;14.058;2023-02-17T02:48:31;9.00;49.50
326;DHT22;150;52.352;14.058;2023-02-17T02:51:19;9.00;50.10
326;DHT22;150;52.352;14.058;2023-02-17T02:56:48;9.00;49.70
326;DHT22;150;52.352;14.058;2023-02-17T02:59:25;9.00;49.90
326;DHT22;150;52.352;14.058;2023-02-17T03:02:04;9.00;49.80
326;DHT22;150;52.352;14.058;2023-02-17T03:04:37;9.00;50.40
326;DHT22;150;52.352;14.058;2023-02-17T03:07:11;8.90;50.60
326;DHT22;150;52.352;14.058;2023-02-17T03:09:46;9.00;50.90
326;DHT22;150;52.352;14.058;2023-02-17T03:12:13;8.90;51.20
326;DHT22;150;52.352;14.058;2023-02-17T03:14:41;8.90;51.60
326;DHT22;150;52.352;14.058;2023-02-17T03:17:08;8.80;51.90
326;DHT22;150;52.352;14.058;2023-02-17T03:19:38;8.80;52.00
326;DHT22;150;52.352;14.058;2023-02-17T03:22:10;8.80;52.70
326;DHT22;150;52.352;14.058;2023-02-17T03:24:39;8.80;53.30
326;DHT22;150;52.352;14.058;2023-02-17T03:27:09;8.70;53.20
326;DHT22;150;52.352;14.058;2023-02-17T03:29:35;8.80;53.50
326;DHT22;150;52.352;14.058;2023-02-17T03:32:03;8.70;53.80
326;DHT22;150;52.352;14.058;2023-02-17T03:34:30;8.80;53.80
326;DHT22;150;52.352;14.058;2023-02-17T03:36:58;8.80;53.90
326;DHT22;150;52.352;14.058;2023-02-17T03:39:25;8.80;54.20
326;DHT22;150;52.352;14.058;2023-02-17T03:41:52;8.80;54.60
326;DHT22;150;52.352;14.058;2023-02-17T03:44:19;8.70;54.90
326;DHT22;150;52.352;14.058;2023-02-17T03:46:46;8.70;55.60
326;DHT22;150;52.352;14.058;2023-02-17T03:49:12;8.80;55.70
326;DHT22;150;52.352;14.058;2023-02-17T03:51:39;8.70;55.70
326;DHT22;150;52.352;14.058;2023-02-17T03:54:07;8.70;56.10
326;DHT22;150;52.352;14.058;2023-02-17T03:56:33;8.80;56.50
326;DHT22;150;52.352;14.058;2023-02-17T03:59:00;8.70;56.90
326;DHT22;150;52.352;14.058;2023-02-17T04:01:26;8.70;57.20
326;DHT22;150;52.352;14.058;2023-02-17T04:03:53;8.70;57.50
326;DHT22;150;52.352;14.058;2023-02-17T04:06:20;8.60;58.10
326;DHT22;150;52.352;14.058;2023-02-17T04:08:47;8.60;58.10
326;DHT22;150;52.352;14.058;2023-02-17T04:11:16;8.60;58.30
326;DHT22;150;52.352;14.058;2023-02-17T04:13:43;8.60;58.70
326;DHT22;150;52.352;14.058;2023-02-17T04:16:09;8.60;59.10
326;DHT22;150;52.352;14.058;2023-02-17T04:18:37;8.60;60.30
326;DHT22;150;52.352;14.058;2023-02-17T04:21:04;8.50;59.70
326;DHT22;150;52.352;14.058;2023-02-17T04:23:33;8.60;60.00
326;DHT22;150;52.352;14.058;2023-02-17T04:25:59;8.60;60.00
326;DHT22;150;52.352;14.058;2023-02-17T04:28:28;8.70;60.30
326;DHT22;150;52.352;14.058;2023-02-17T04:30:56;8.70;60.00
326;DHT22;150;52.352;14.058;2023-02-17T04:33:23;8.70;60.50
326;DHT22;150;52.352;14.058;2023-02-17T04:35:50;8.70;60.80
326;DHT22;150;52.352;14.058;2023-02-17T04:38:18;8.60;61.40
326;DHT22;150;52.352;14.058;2023-02-17T04:40:44;8.60;61.90
326;DHT22;150;52.352;14.058;2023-02-17T04:43:11;8.60;62.40
326;DHT22;150;52.352;14.058;2023-02-17T04:45:39;8.60;63.00
326;DHT22;150;52.352;14.058;2023-02-17T04:48:05;8.70;62.80
326;DHT22;150;52.352;14.058;2023-02-17T04:50:32;8.70;62.30
326;DHT22;150;52.352;14.058;2023-02-17T04:52:58;8.70;62.80
326;DHT22;150;52.352;14.058;2023-02-17T04:55:25;8.80;62.50
326;DHT22;150;52.352;14.058;2023-02-17T04:57:54;8.80;62.40
326;DHT22;150;52.352;14.058;2023-02-17T05:00:21;8.80;62.00
326;DHT22;150;52.352;14.058;2023-02-17T05:02:49;8.80;62.20
326;DHT22;150;52.352;14.058;2023-02-17T05:05:15;8.80;61.70
326;DHT22;150;52.352;14.058;2023-02-17T05:07:45;8.80;61.80
326;DHT22;150;52.352;14.058;2023-02-17T05:10:13;8.70;62.10
326;DHT22;150;52.352;14.058;2023-02-17T05:12:40;8.70;63.30
326;DHT22;150;52.352;14.058;2023-02-17T05:15:07;8.70;63.40
326;DHT22;150;52.352;14.058;2023-02-17T05:17:35;8.70;63.30
326;DHT22;150;52.352;14.058;2023-02-17T05:20:04;8.70;63.30
326;DHT22;150;52.352;14.058;2023-02-17T05:22:31;8.70;63.30
326;DHT22;150;52.352;14.058;2023-02-17T05:24:57;8.70;63.60
326;DHT22;150;52.352;14.058;2023-02-17T05:27:24;8.80;63.40
326;DHT22;150;52.352;14.058;2023-02-17T05:29:51;8.80;63.40
326;DHT22;150;52.352;14.058;2023-02-17T05:32:17;8.80;63.70
326;DHT22;150;52.352;14.058;2023-02-17T05:34:44;8.80;63.70
326;DHT22;150;52.352;14.058;2023-02-17T05:37:12;8.80;63.50
326;DHT22;150;52.352;14.058;2023-02-17T05:39:38;8.90;64.00
326;DHT22;150;52.352;14.058;2023-02-17T05:42:05;8.90;63.50
326;DHT22;150;52.352;14.058;2023-02-17T05:44:32;8.90;63.50
326;DHT22;150;52.352;14.058;2023-02-17T05:46:59;8.90;63.50
326;DHT22;150;52.352;14.058;2023-02-17T05:49:25;8.90;63.50
326;DHT22;150;52.352;14.058;2023-02-17T05:51:52;9.00;63.60
326;DHT22;150;52.352;14.058;2023-02-17T05:54:20;9.00;63.60
326;DHT22;150;52.352;14.058;2023-02-17T05:56:47;9.00;63.60
326;DHT22;150;52.352;14.058;2023-02-17T05:59:13;9.00;63.60
326;DHT22;150;52.352;14.058;2023-02-17T06:01:40;9.00;63.00
326;DHT22;150;52.352;14.058;2023-02-17T06:04:06;9.10;63.10
326;DHT22;150;52.352;14.058;2023-02-17T06:06:35;9.00;62.40
326;DHT22;150;52.352;14.058;2023-02-17T06:09:02;9.00;62.90
326;DHT22;150;52.352;14.058;2023-02-17T06:11:30;8.90;63.10
326;DHT22;150;52.352;14.058;2023-02-17T06:13:57;8.90;63.50
326;DHT22;150;52.352;14.058;2023-02-17T06:16:24;8.90;63.50
326;DHT22;150;52.352;14.058;2023-02-17T06:18:50;9.00;63.60
326;DHT22;150;52.352;14.058;2023-02-17T06:21:17;9.10;63.70
326;DHT22;150;52.352;14.058;2023-02-17T06:23:43;9.10;63.00
326;DHT22;150;52.352;14.058;2023-02-17T06:26:10;9.10;62.60
326;DHT22;150;52.352;14.058;2023-02-17T06:28:38;9.10;62.50
326;DHT22;150;52.352;14.058;2023-02-17T06:31:04;9.10;62.60
326;DHT22;150;52.352;14.058;2023-02-17T06:33:31;9.00;62.40
326;DHT22;150;52.352;14.058;2023-02-17T06:35:58;8.90;62.80
326;DHT22;150;52.352;14.058;2023-02-17T06:38:24;9.00;63.60
326;DHT22;150;52.352;14.058;2023-02-17T06:40:51;8.90;63.50
326;DHT22;150;52.352;14.058;2023-02-17T06:43:18;8.90;64.20
326;DHT22;150;52.352;14.058;2023-02-17T06:45:46;8.90;64.80
326;DHT22;150;52.352;14.058;2023-02-17T06:48:13;8.90;65.20
326;DHT22;150;52.352;14.058;2023-02-17T06:50:40;9.00;65.00
326;DHT22;150;52.352;14.058;2023-02-17T06:53:07;9.00;64.80
326;DHT22;150;52.352;14.058;2023-02-17T06:55:33;8.90;64.70
326;DHT22;150;52.352;14.058;2023-02-17T06:58:01;9.00;64.80
326;DHT22;150;52.352;14.058;2023-02-17T07:00:28;9.00;65.00
326;DHT22;150;52.352;14.058;2023-02-17T07:02:56;9.00;65.00
326;DHT22;150;52.352;14.058;2023-02-17T07:05:23;9.10;64.80
326;DHT22;150;52.352;14.058;2023-02-17T07:07:49;9.10;64.80
326;DHT22;150;52.352;14.058;2023-02-17T07:10:17;9.20;64.70
326;DHT22;150;52.352;14.058;2023-02-17T07:12:44;9.10;64.20
326;DHT22;150;52.352;14.058;2023-02-17T07:15:10;9.10;64.50
326;DHT22;150;52.352;14.058;2023-02-17T07:17:37;9.10;64.60
326;DHT22;150;52.352;14.058;2023-02-17T07:20:08;9.20;64.70
326;DHT22;150;52.352;14.058;2023-02-17T07:22:35;9.20;64.40
326;DHT22;150;52.352;14.058;2023-02-17T07:25:02;9.20;64.90
326;DHT22;150;52.352;14.058;2023-02-17T07:27:28;9.20;64.70
326;DHT22;150;52.352;14.058;2023-02-17T07:29:56;9.20;64.90
326;DHT22;150;52.352;14.058;2023-02-17T07:32:22;9.20;64.80
326;DHT22;150;52.352;14.058;2023-02-17T07:34:49;9.30;65.30
326;DHT22;150;52.352;14.058;2023-02-17T07:37:17;9.20;65.40
326;DHT22;150;52.352;14.058;2023-02-17T07:39:46;9.30;65.20
326;DHT22;150;52.352;14.058;2023-02-17T07:42:12;9.30;65.00
326;DHT22;150;52.352;14.058;2023-02-17T07:44:39;9.40;65.30
326;DHT22;150;52.352;14.058;2023-02-17T07:47:06;9.40;65.10
326;DHT22;150;52.352;14.058;2023-02-17T07:49:32;9.50;64.60
326;DHT22;150;52.352;14.058;2023-02-17T07:51:59;9.50;64.10
326;DHT22;150;52.352;14.058;2023-02-17T07:54:26;9.60;64.20
326;DHT22;150;52.352;14.058;2023-02-17T07:56:53;9.50;63.70
326;DHT22;150;52.352;14.058;2023-02-17T07:59:20;9.50;64.80
326;DHT22;150;52.352;14.058;2023-02-17T08:01:46;9.50;64.10
326;DHT22;150;52.352;14.058;2023-02-17T08:04:14;9.50;64.10
326;DHT22;150;52.352;14.058;2023-02-17T08:06:41;9.60;64.20
326;DHT22;150;52.352;14.058;2023-02-17T08:09:08;9.60;64.00
326;DHT22;150;52.352;14.058;2023-02-17T08:11:54;9.70;63.50
326;DHT22;150;52.352;14.058;2023-02-17T08:14:39;9.70;63.20
326;DHT22;150;52.352;14.058;2023-02-17T08:17:05;9.80;62.80
326;DHT22;150;52.352;14.058;2023-02-17T08:19:32;9.80;62.40
326;DHT22;150;52.352;14.058;2023-02-17T08:21:59;9.90;62.70
326;DHT22;150;52.352;14.058;2023-02-17T08:24:25;9.90;62.10
326;DHT22;150;52.352;14.058;2023-02-17T08:26:52;10.00;61.10
326;DHT22;150;52.352;14.058;2023-02-17T08:29:21;10.00;60.60
326;DHT22;150;52.352;14.058;2023-02-17T08:31:51;10.00;60.40
326;DHT22;150;52.352;14.058;2023-02-17T08:34:18;10.00;60.20
326;DHT22;150;52.352;14.058;2023-02-17T08:36:45;10.10;60.40
326;DHT22;150;52.352;14.058;2023-02-17T08:39:14;10.10;60.10
326;DHT22;150;52.352;14.058;2023-02-17T08:41:41;10.20;60.20
326;DHT22;150;52.352;14.058;2023-02-17T08:44:12;10.30;59.50
326;DHT22;150;52.352;14.058;2023-02-17T08:46:41;10.30;58.90
326;DHT22;150;52.352;14.058;2023-02-17T08:49:08;10.30;58.60
326;DHT22;150;52.352;14.058;2023-02-17T08:51:36;10.30;58.60
326;DHT22;150;52.352;14.058;2023-02-17T08:54:04;10.30;58.40
326;DHT22;150;52.352;14.058;2023-02-17T08:56:31;10.30;58.60
326;DHT22;150;52.352;14.058;2023-02-17T08:58:58;10.30;58.60
326;DHT22;150;52.352;14.058;2023-02-17T09:01:25;10.30;58.60
326;DHT22;150;52.352;14.058;2023-02-17T09:03:55;10.40;58.60
326;DHT22;150;52.352;14.058;2023-02-17T09:06:22;10.50;58.40
326;DHT22;150;52.352;14.058;2023-02-17T09:08:51;10.50;58.20
326;DHT22;150;52.352;14.058;2023-02-17T09:11:17;10.50;58.80
326;DHT22;150;52.352;14.058;2023-02-17T09:13:45;10.50;58.20
326;DHT22;150;52.352;14.058;2023-02-17T09:16:12;10.50;58.70
326;DHT22;150;52.352;14.058;2023-02-17T09:18:39;10.50;58.70
326;DHT22;150;52.352;14.058;2023-02-17T09:21:09;10.50;58.60
326;DHT22;150;52.352;14.058;2023-02-17T09:23:38;10.50;58.80
326;DHT22;150;52.352;14.058;2023-02-17T09:26:07;10.60;58.90
326;DHT22;150;52.352;14.058;2023-02-17T09:28:35;10.60;58.80
326;DHT22;150;52.352;14.058;2023-02-17T09:31:07;10.70;58.90
326;DHT22;150;52.352;14.058;2023-02-17T09:33:34;10.60;58.80
326;DHT22;150;52.352;14.058;2023-02-17T09:36:01;10.70;59.00
326;DHT22;150;52.352;14.058;2023-02-17T09:38:29;10.70;58.90
326;DHT22;150;52.352;14.058;2023-02-17T09:41:01;10.70;58.90
326;DHT22;150;52.352;14.058;2023-02-17T09:43:30;10.70;59.00
326;DHT22;150;52.352;14.058;2023-02-17T09:45:59;10.70;59.50
326;DHT22;150;52.352;14.058;2023-02-17T09:48:30;10.80;59.70
326;DHT22;150;52.352;14.058;2023-02-17T09:51:01;10.70;59.80
326;DHT22;150;52.352;14.058;2023-02-17T09:53:36;10.70;60.00
326;DHT22;150;52.352;14.058;2023-02-17T09:56:07;10.70;60.50
326;DHT22;150;52.352;14.058;2023-02-17T09:58:38;10.70;60.70
326;DHT22;150;52.352;14.058;2023-02-17T10:01:07;10.80;60.80
326;DHT22;150;52.352;14.058;2023-02-17T10:03:38;10.80;60.90
326;DHT22;150;52.352;14.058;2023-02-17T10:06:12;10.80;60.60
326;DHT22;150;52.352;14.058;2023-02-17T10:08:44;10.80;61.50
326;DHT22;150;52.352;14.058;2023-02-17T10:11:17;10.90;61.50
326;DHT22;150;52.352;14.058;2023-02-17T10:13:48;10.90;61.40
326;DHT22;150;52.352;14.058;2023-02-17T10:16:20;10.90;61.80
326;DHT22;150;52.352;14.058;2023-02-17T10:18:51;10.90;62.00
326;DHT22;150;52.352;14.058;2023-02-17T10:21:24;11.00;62.20
326;DHT22;150;52.352;14.058;2023-02-17T10:23:53;10.90;61.60
326;DHT22;150;52.352;14.058;2023-02-17T10:26:25;10.90;61.80
326;DHT22;150;52.352;14.058;2023-02-17T10:28:59;10.90;62.40
326;DHT22;150;52.352;14.058;2023-02-17T10:31:39;10.90;62.60
326;DHT22;150;52.352;14.058;2023-02-17T10:34:12;11.00;63.10
326;DHT22;150;52.352;14.058;2023-02-17T10:36:47;11.00;62.30
326;DHT22;150;52.352;14.058;2023-02-17T10:39:40;11.00;62.60
326;DHT22;150;52.352;14.058;2023-02-17T10:42:15;11.10;62.50
326;DHT22;150;52.352;14.058;2023-02-17T10:44:43;11.10;61.90
326;DHT22;150;52.352;14.058;2023-02-17T10:47:10;11.10;62.40
326;DHT22;150;52.352;14.058;2023-02-17T10:49:40;11.00;62.40
326;DHT22;150;52.352;14.058;2023-02-17T10:52:12;11.10;62.60
326;DHT22;150;52.352;14.058;2023-02-17T10:54:44;11.10;62.60
326;DHT22;150;52.352;14.058;2023-02-17T10:57:12;11.10;62.70
326;DHT22;150;52.352;14.058;2023-02-17T10:59:41;11.10;63.00
326;DHT22;150;52.352;14.058;2023-02-17T11:02:16;11.10;63.50
326;DHT22;150;52.352;14.058;2023-02-17T11:04:44;11.10;63.30
326;DHT22;150;52.352;14.058;2023-02-17T11:07:13;11.00;63.10
326;DHT22;150;52.352;14.058;2023-02-17T11:09:46;11.00;63.40
326;DHT22;150;52.352;14.058;2023-02-17T11:12:15;11.00;63.10
326;DHT22;150;52.352;14.058;2023-02-17T11:14:44;10.90;63.50
326;DHT22;150;52.352;14.058;2023-02-17T11:17:19;10.90;64.30
326;DHT22;150;52.352;14.058;2023-02-17T11:19:57;10.90;64.30
326;DHT22;150;52.352;14.058;2023-02-17T11:22:32;10.90;64.30
326;DHT22;150;52.352;14.058;2023-02-17T11:25:06;10.90;64.50
326;DHT22;150;52.352;14.058;2023-02-17T11:27:32;10.90;64.90
326;DHT22;150;52.352;14.058;2023-02-17T11:30:08;10.90;64.50
326;DHT22;150;52.352;14.058;2023-02-17T11:32:39;10.90;64.30
326;DHT22;150;52.352;14.058;2023-02-17T11:35:19;11.00;64.40
326;DHT22;150;52.352;14.058;2023-02-17T11:37:50;11.00;64.40
326;DHT22;150;52.352;14.058;2023-02-17T11:40:24;11.10;64.50
326;DHT22;150;52.352;14.058;2023-02-17T11:42:55;11.10;63.90
326;DHT22;150;52.352;14.058;2023-02-17T11:45:22;11.20;63.30
326;DHT22;150;52.352;14.058;2023-02-17T11:48:00;11.20;63.10
326;DHT22;150;52.352;14.058;2023-02-17T11:50:36;11.20;62.80
326;DHT22;150;52.352;14.058;2023-02-17T11:53:16;11.20;63.30
326;DHT22;150;52.352;14.058;2023-02-17T11:55:53;11.30;62.90
326;DHT22;150;52.352;14.058;2023-02-17T11:58:32;11.30;62.70
326;DHT22;150;52.352;14.058;2023-02-17T12:01:13;11.30;62.50
326;DHT22;150;52.352;14.058;2023-02-17T12:04:10;11.40;62.70
326;DHT22;150;52.352;14.058;2023-02-17T12:06:45;11.40;62.30
326;DHT22;150;52.352;14.058;2023-02-17T12:09:21;11.50;62.00
326;DHT22;150;52.352;14.058;2023-02-17T12:11:57;11.50;61.60
326;DHT22;150;52.352;14.058;2023-02-17T12:14:44;11.60;61.10
326;DHT22;150;52.352;14.058;2023-02-17T12:17:23;11.60;61.10
326;DHT22;150;52.352;14.058;2023-02-17T12:19:58;11.70;60.50
326;DHT22;150;52.352;14.058;2023-02-17T12:22:37;11.60;60.90
326;DHT22;150;52.352;14.058;2023-02-17T12:25:23;11.60;61.00
326;DHT22;150;52.352;14.058;2023-02-17T12:28:09;11.60;61.10
326;DHT22;150;52.352;14.058;2023-02-17T12:30:47;11.60;60.50
326;DHT22;150;52.352;14.058;2023-02-17T12:33:33;11.60;60.30
326;DHT22;150;52.352;14.058;2023-02-17T12:36:07;11.70;60.70
326;DHT22;150;52.352;14.058;2023-02-17T12:38:38;11.70;60.40
326;DHT22;150;52.352;14.058;2023-02-17T12:41:10;11.80;60.50
326;DHT22;150;52.352;14.058;2023-02-17T12:43:43;11.80;60.60
326;DHT22;150;52.352;14.058;2023-02-17T12:46:14;11.80;60.30
326;DHT22;150;52.352;14.058;2023-02-17T12:48:43;11.80;59.90
326;DHT22;150;52.352;14.058;2023-02-17T12:51:15;11.80;60.40
326;DHT22;150;52.352;14.058;2023-02-17T12:53:46;11.90;60.40
326;DHT22;150;52.352;14.058;2023-02-17T12:56:43;11.90;60.00
326;DHT22;150;52.352;14.058;2023-02-17T12:59:16;11.80;59.90
326;DHT22;150;52.352;14.058;2023-02-17T13:01:50;11.80;59.90
326;DHT22;150;52.352;14.058;2023-02-17T13:04:19;11.90;60.00
326;DHT22;150;52.352;14.058;2023-02-17T13:06:53;11.90;60.00
326;DHT22;150;52.352;14.058;2023-02-17T13:09:28;12.00;59.40
326;DHT22;150;52.352;14.058;2023-02-17T13:12:07;12.10;58.80
326;DHT22;150;52.352;14.058;2023-02-17T13:14:41;12.20;58.50
326;DHT22;150;52.352;14.058;2023-02-17T13:17:22;12.30;57.80
326;DHT22;150;52.352;14.058;2023-02-17T13:20:01;12.30;56.90
326;DHT22;150;52.352;14.058;2023-02-17T13:22:28;12.40;56.90
326;DHT22;150;52.352;14.058;2023-02-17T13:24:55;12.40;56.60
326;DHT22;150;52.352;14.058;2023-02-17T13:27:32;12.40;56.50
326;DHT22;150;52.352;14.058;2023-02-17T13:30:02;12.40;55.90
326;DHT22;150;52.352;14.058;2023-02-17T13:32:32;12.30;55.80
326;DHT22;150;52.352;14.058;2023-02-17T13:35:00;12.30;56.60
326;DHT22;150;52.352;14.058;2023-02-17T13:37:38;12.40;56.40
326;DHT22;150;52.352;14.058;2023-02-17T13:43:09;12.50;55.50
326;DHT22;150;52.352;14.058;2023-02-17T13:45:42;12.60;55.60
326;DHT22;150;52.352;14.058;2023-02-17T13:48:21;12.60;55.60
326;DHT22;150;52.352;14.058;2023-02-17T13:50:49;12.70;55.40
326;DHT22;150;52.352;14.058;2023-02-17T13:53:22;12.60;54.80
326;DHT22;150;52.352;14.058;2023-02-17T13:55:50;12.60;54.60
326;DHT22;150;52.352;14.058;2023-02-17T13:58:21;12.70;54.60
326;DHT22;150;52.352;14.058;2023-02-17T14:00:49;12.80;54.40
326;DHT22;150;52.352;14.058;2023-02-17T14:03:20;12.80;53.90
326;DHT22;150;52.352;14.058;2023-02-17T14:05:49;12.90;53.50
326;DHT22;150;52.352;14.058;2023-02-17T14:08:19;12.90;53.00
326;DHT22;150;52.352;14.058;2023-02-17T14:10:47;13.00;53.00
326;DHT22;150;52.352;14.058;2023-02-17T14:13:14;13.00;52.90
326;DHT22;150;52.352;14.058;2023-02-17T14:15:54;13.10;52.30
326;DHT22;150;52.352;14.058;2023-02-17T14:18:28;13.10;51.90
326;DHT22;150;52.352;14.058;2023-02-17T14:21:06;13.00;51.80
326;DHT22;150;52.352;14.058;2023-02-17T14:23:45;12.90;51.90
326;DHT22;150;52.352;14.058;2023-02-17T14:26:23;12.90;52.20
326;DHT22;150;52.352;14.058;2023-02-17T14:28:52;12.90;52.50
326;DHT22;150;52.352;14.058;2023-02-17T14:31:21;13.00;51.90
326;DHT22;150;52.352;14.058;2023-02-17T14:33:53;13.00;51.70
326;DHT22;150;52.352;14.058;2023-02-17T14:36:29;13.00;51.60
326;DHT22;150;52.352;14.058;2023-02-17T14:38:57;13.10;51.20
326;DHT22;150;52.352;14.058;2023-02-17T14:41:25;13.00;51.10
326;DHT22;150;52.352;14.058;2023-02-17T14:43:52;13.10;51.10
326;DHT22;150;52.352;14.058;2023-02-17T14:46:20;13.00;51.40
326;DHT22;150;52.352;14.058;2023-02-17T14:48:48;13.00;52.20
326;DHT22;150;52.352;14.058;2023-02-17T14:51:17;13.00;52.80
326;DHT22;150;52.352;14.058;2023-02-17T14:53:44;13.00;52.00
326;DHT22;150;52.352;14.058;2023-02-17T14:56:17;13.10;52.20
326;DHT22;150;52.352;14.058;2023-02-17T14:58:44;13.00;52.30
326;DHT22;150;52.352;14.058;2023-02-17T15:01:12;13.00;52.20
326;DHT22;150;52.352;14.058;2023-02-17T15:03:41;13.00;52.00
326;DHT22;150;52.352;14.058;2023-02-17T15:06:12;13.00;52.40
326;DHT22;150;52.352;14.058;2023-02-17T15:08:42;13.00;52.20
326;DHT22;150;52.352;14.058;2023-02-17T15:11:17;13.10;52.40
326;DHT22;150;52.352;14.058;2023-02-17T15:13:44;13.00;52.60
326;DHT22;150;52.352;14.058;2023-02-17T15:16:11;12.90;53.30
326;DHT22;150;52.352;14.058;2023-02-17T15:18:38;12.90;54.10
326;DHT22;150;52.352;14.058;2023-02-17T15:21:24;13.00;54.80
326;DHT22;150;52.352;14.058;2023-02-17T15:23:52;13.00;55.90
326;DHT22;150;52.352;14.058;2023-02-17T15:26:19;13.00;55.90
326;DHT22;150;52.352;14.058;2023-02-17T15:28:46;12.90;56.80
326;DHT22;150;52.352;14.058;2023-02-17T15:31:14;12.80;58.00
326;DHT22;150;52.352;14.058;2023-02-17T15:33:42;12.80;59.10
326;DHT22;150;52.352;14.058;2023-02-17T15:36:13;12.80;59.70
326;DHT22;150;52.352;14.058;2023-02-17T15:38:40;12.70;60.20
326;DHT22;150;52.352;14.058;2023-02-17T15:41:12;12.70;60.70
326;DHT22;150;52.352;14.058;2023-02-17T15:43:39;12.70;61.10
326;DHT22;150;52.352;14.058;2023-02-17T15:46:12;12.70;61.40
326;DHT22;150;52.352;14.058;2023-02-17T15:48:39;12.60;62.00
326;DHT22;150;52.352;14.058;2023-02-17T15:51:11;12.50;62.90
326;DHT22;150;52.352;14.058;2023-02-17T15:53:39;12.50;63.30
326;DHT22;150;52.352;14.058;2023-02-17T15:56:11;12.40;64.20
326;DHT22;150;52.352;14.058;2023-02-17T15:58:38;12.40;64.70
326;DHT22;150;52.352;14.058;2023-02-17T16:01:05;12.40;65.40
326;DHT22;150;52.352;14.058;2023-02-17T16:03:31;12.30;65.70
326;DHT22;150;52.352;14.058;2023-02-17T16:05:58;12.30;65.90
326;DHT22;150;52.352;14.058;2023-02-17T16:08:26;12.30;66.10
326;DHT22;150;52.352;14.058;2023-02-17T16:10:52;12.30;66.30
326;DHT22;150;52.352;14.058;2023-02-17T16:13:20;12.30;66.70
326;DHT22;150;52.352;14.058;2023-02-17T16:15:47;12.30;67.40
326;DHT22;150;52.352;14.058;2023-02-17T16:18:19;12.30;67.60
326;DHT22;150;52.352;14.058;2023-02-17T16:20:46;12.30;67.40
326;DHT22;150;52.352;14.058;2023-02-17T16:23:13;12.30;67.30
326;DHT22;150;52.352;14.058;2023-02-17T16:25:42;12.20;67.20
326;DHT22;150;52.352;14.058;2023-02-17T16:28:13;12.20;67.80
326;DHT22;150;52.352;14.058;2023-02-17T16:30:41;12.20;67.60
326;DHT22;150;52.352;14.058;2023-02-17T16:33:09;12.20;68.10
326;DHT22;150;52.352;14.058;2023-02-17T16:35:36;12.20;68.20
326;DHT22;150;52.352;14.058;2023-02-17T16:38:05;12.20;68.20
326;DHT22;150;52.352;14.058;2023-02-17T16:40:34;12.20;68.50
326;DHT22;150;52.352;14.058;2023-02-17T16:43:03;12.30;68.20
326;DHT22;150;52.352;14.058;2023-02-17T16:45:31;12.30;67.40
326;DHT22;150;52.352;14.058;2023-02-17T16:47:59;12.20;67.40
326;DHT22;150;52.352;14.058;2023-02-17T16:50:28;12.20;67.40